In Rescue
 
Open Full Screen Window  High Contrast Mode
June 22, 2024 9:43 PM CDT
Weather Information
Wind Direction
  ---
Wind Speed
  00 kt (0 mph)
Wind Gust
  00 kt (0 mph)
Altimeter
29.83 in
Visibility
10 SM
Temperature
21° C
70° F
Dewpoint
16° C
61° F
Humidity
73%
Sky Condition
Overcast @ 8,000 ft
VFR

METAR KROX 230243Z AUTO 00000KT 10SM OVC080 21/16 A2983 RMK AO2

FAA Disclaimer: The data displayed is for advisory purposes only and is not to be used for flight planning or operations.